Poulan, Georgia
Current Conditions -  °F | °C
As of 3:15 PM on Friday 28 Nov 2014 (Local Time) from KTMA Reporting Station
Clear Clear  
Wind Chill: 50°   Ceiling: Unl
Heat Index: 50°   Visibility: 10mi
Dew Point: 24°   Wind: 6mph
Humidity: 36%   Direction: 320°NW
Pressure: 30.31"   Gusts: NA
Location:  31.51°N, 83.79°W
Report Text: KTMA 282015Z AUTO 32005KT 10SM CLR 10/M04 A3031 RMK AO2 T01021043
Loading
Personal Weather Stations






























Interactive Weather Map New forecast layout! Learn more

10-Day Weather Forecast

Advertisements
Track Severe Weather on mobile